createdAt,value
2022-10-25T00:01:52.802Z,101515.63
2022-10-25T00:04:23.007Z,101515.28
2022-10-25T00:06:53.044Z,101506.19
2022-10-25T00:09:23.315Z,101516.47
2022-10-25T00:11:53.513Z,101524.03
2022-10-25T00:14:23.725Z,101518.41
2022-10-25T00:16:55.066Z,101519.59
2022-10-25T00:19:25.376Z,101526.31
2022-10-25T00:21:56.627Z,101529.19
2022-10-25T00:24:26.876Z,101532.31
2022-10-25T00:26:57.675Z,101524.03
2022-10-25T00:29:27.763Z,101526.94
2022-10-25T00:31:57.826Z,101527.25
2022-10-25T00:34:27.967Z,101529.44
2022-10-25T00:36:58.132Z,101541.88
2022-10-25T00:39:28.274Z,101538.75
2022-10-25T00:41:58.726Z,101543.28
2022-10-25T00:44:52.999Z,101533.81
2022-10-25T00:47:23.171Z,101528.88
2022-10-25T00:50:07.783Z,101535.22
2022-10-25T00:52:40.418Z,101531.09
2022-10-25T00:55:14.011Z,101537.44
2022-10-25T00:58:04.250Z,101534.84
2022-10-25T01:00:34.459Z,101541.19
2022-10-25T01:03:05.763Z,101540.56
2022-10-25T01:05:38.162Z,101540.53
2022-10-25T01:08:08.635Z,101538.09
2022-10-25T01:10:38.492Z,101527.81
2022-10-25T01:13:08.883Z,101526.22
2022-10-25T01:15:55.125Z,101529.88
2022-10-25T01:18:39.632Z,101534.41
2022-10-25T01:21:22.994Z,101537.22
2022-10-25T01:24:16.827Z,101532.94
2022-10-25T01:27:32.794Z,101537.28
2022-10-25T01:30:28.701Z,101533.00
2022-10-25T01:33:17.011Z,101534.03
2022-10-25T01:35:56.785Z,101523.34
2022-10-25T01:38:42.143Z,101523.50
2022-10-25T01:41:36.254Z,101506.84
2022-10-25T01:44:32.503Z,101510.47
2022-10-25T01:47:23.762Z,101515.75
2022-10-25T01:50:26.726Z,101519.53
2022-10-25T01:52:57.316Z,101520.66
2022-10-25T01:55:33.525Z,101525.16
2022-10-25T01:58:27.963Z,101512.75
2022-10-25T02:01:20.816Z,101511.06
2022-10-25T02:04:08.063Z,101510.25
2022-10-25T02:06:50.071Z,101502.28
2022-10-25T02:09:43.062Z,101507.69
2022-10-25T02:12:21.185Z,101505.88
2022-10-25T02:15:15.644Z,101501.41
2022-10-25T02:17:53.449Z,101501.47
2022-10-25T02:20:26.445Z,101502.56
2022-10-25T02:22:57.745Z,101500.03
2022-10-25T02:25:28.805Z,101486.06
2022-10-25T02:28:00.573Z,101488.00
2022-10-25T02:30:34.502Z,101471.34
2022-10-25T02:33:04.044Z,101475.19
2022-10-25T02:35:34.356Z,101475.31
2022-10-25T02:38:05.640Z,101473.72
2022-10-25T02:40:37.698Z,101470.78
2022-10-25T02:43:08.112Z,101478.03
2022-10-25T02:45:41.300Z,101475.47
2022-10-25T02:48:12.065Z,101480.16
2022-10-25T02:50:42.331Z,101476.91
2022-10-25T02:53:11.928Z,101469.88
2022-10-25T02:55:42.011Z,101463.09
2022-10-25T02:58:12.406Z,101470.47
2022-10-25T03:00:43.763Z,101466.22
2022-10-25T03:03:14.368Z,101459.47
2022-10-25T03:05:47.194Z,101449.06
2022-10-25T03:08:17.570Z,101445.94
2022-10-25T03:10:47.934Z,101451.47
2022-10-25T03:13:18.942Z,101442.03
2022-10-25T03:15:49.521Z,101442.41
2022-10-25T03:18:20.148Z,101436.47
2022-10-25T03:20:51.274Z,101442.00
2022-10-25T03:23:21.661Z,101440.53
2022-10-25T03:25:57.764Z,101438.09
2022-10-25T03:28:28.993Z,101420.50
2022-10-25T03:31:01.318Z,101422.41
2022-10-25T03:36:07.592Z,101405.50
2022-10-25T03:38:38.158Z,101408.34
2022-10-25T03:41:08.903Z,101404.22
2022-10-25T03:43:39.311Z,101402.75
2022-10-25T03:46:09.509Z,101398.59
2022-10-25T03:48:39.000Z,101391.97
2022-10-25T03:51:09.231Z,101385.31
2022-10-25T03:53:39.449Z,101384.66
2022-10-25T03:56:09.976Z,101376.22
2022-10-25T03:58:40.459Z,101366.75
2022-10-25T04:01:13.788Z,101362.75
2022-10-25T04:03:46.507Z,101364.91
2022-10-25T04:06:16.610Z,101360.91
2022-10-25T04:08:46.817Z,101356.09
2022-10-25T04:11:16.950Z,101357.44
2022-10-25T04:13:47.321Z,101343.63
2022-10-25T04:16:19.210Z,101349.13
2022-10-25T04:18:51.786Z,101341.78
2022-10-25T04:21:23.239Z,101340.13
2022-10-25T04:23:54.229Z,101338.78
2022-10-25T04:26:23.768Z,101342.78
2022-10-25T04:28:55.638Z,101342.28
2022-10-25T04:31:26.719Z,101337.44
2022-10-25T04:33:58.339Z,101327.34
2022-10-25T04:36:31.623Z,101326.00
2022-10-25T04:39:01.757Z,101317.66
2022-10-25T04:41:32.079Z,101314.81
2022-10-25T04:44:02.798Z,101308.00
2022-10-25T04:46:33.035Z,101311.16
2022-10-25T04:49:06.335Z,101301.81
2022-10-25T04:51:36.765Z,101298.81
2022-10-25T04:54:06.958Z,101296.47
2022-10-25T04:56:37.372Z,101285.44
2022-10-25T04:59:08.033Z,101285.94
2022-10-25T05:01:38.828Z,101286.44
2022-10-25T05:04:09.160Z,101275.41
2022-10-25T05:06:39.537Z,101271.75
2022-10-25T05:09:09.816Z,101268.75
2022-10-25T05:11:40.013Z,101269.38
2022-10-25T05:14:10.890Z,101256.72
2022-10-25T05:16:41.021Z,101255.34
2022-10-25T05:19:11.742Z,101255.00
2022-10-25T05:21:41.852Z,101254.66
2022-10-25T05:24:12.067Z,101245.31
2022-10-25T05:26:42.819Z,101236.97
2022-10-25T05:29:14.566Z,101236.63
2022-10-25T05:31:44.783Z,101241.56
2022-10-25T05:34:14.940Z,101230.75
2022-10-25T05:36:45.064Z,101225.06
2022-10-25T05:39:15.183Z,101233.53
2022-10-25T05:41:45.395Z,101231.50
2022-10-25T05:44:16.435Z,101232.84
2022-10-25T05:46:47.538Z,101234.47
2022-10-25T05:49:17.909Z,101219.13
2022-10-25T05:51:48.209Z,101221.44
2022-10-25T05:54:18.604Z,101221.91
2022-10-25T05:56:48.809Z,101210.06
2022-10-25T05:59:19.028Z,101209.69
2022-10-25T06:01:50.072Z,101213.91
2022-10-25T06:04:21.026Z,101204.69
2022-10-25T06:06:53.631Z,101210.66
2022-10-25T06:09:24.108Z,101201.66
2022-10-25T06:11:54.444Z,101201.50
2022-10-25T06:14:25.099Z,101206.47
2022-10-25T06:16:55.429Z,101192.97
2022-10-25T06:19:25.743Z,101195.25
2022-10-25T06:21:58.576Z,101196.75
2022-10-25T06:24:28.789Z,101196.56
2022-10-25T06:26:58.837Z,101196.19
2022-10-25T06:29:28.992Z,101201.34
2022-10-25T06:31:59.088Z,101193.16
2022-10-25T06:34:29.279Z,101195.81
2022-10-25T06:36:59.390Z,101198.78
2022-10-25T06:39:29.619Z,101195.75
2022-10-25T06:41:59.866Z,101193.72
2022-10-25T06:44:30.031Z,101181.03
2022-10-25T06:47:17.924Z,101183.69
2022-10-25T06:49:47.905Z,101191.53
2022-10-25T06:52:18.318Z,101190.69
2022-10-25T06:54:48.589Z,101180.03
2022-10-25T06:57:19.319Z,101179.00
2022-10-25T06:59:50.211Z,101174.69
2022-10-25T07:02:20.825Z,101167.50
2022-10-25T07:04:51.701Z,101179.19
2022-10-25T07:07:21.853Z,101178.00
2022-10-25T07:09:51.937Z,101175.78
2022-10-25T07:12:22.267Z,101175.59
2022-10-25T07:14:52.349Z,101180.94
2022-10-25T07:17:22.382Z,101185.47
2022-10-25T07:19:52.625Z,101184.63
2022-10-25T07:22:22.772Z,101182.13
2022-10-25T07:24:53.055Z,101192.00
2022-10-25T07:27:24.509Z,101186.00
2022-10-25T07:29:55.586Z,101193.19
2022-10-25T07:32:25.889Z,101180.03
2022-10-25T07:34:56.079Z,101182.88
2022-10-25T07:37:26.426Z,101182.06
2022-10-25T07:39:56.509Z,101182.41
2022-10-25T07:42:26.690Z,101180.09
2022-10-25T07:44:56.815Z,101191.78
2022-10-25T07:47:27.303Z,101192.97
2022-10-25T07:49:59.640Z,101182.66
2022-10-25T07:52:30.820Z,101190.03
2022-10-25T07:55:01.034Z,101186.72
2022-10-25T07:57:31.988Z,101186.25
2022-10-25T08:00:02.601Z,101187.41
2022-10-25T08:02:34.149Z,101187.88
2022-10-25T08:05:04.832Z,101186.25
2022-10-25T08:07:34.887Z,101189.91
2022-10-25T08:10:06.094Z,101181.25
2022-10-25T08:12:36.474Z,101181.44
2022-10-25T08:15:06.245Z,101178.31
2022-10-25T08:17:36.396Z,101188.50
2022-10-25T08:20:06.846Z,101186.41
2022-10-25T08:22:36.373Z,101186.72
2022-10-25T08:25:12.169Z,101192.41
2022-10-25T08:27:44.623Z,101187.41
2022-10-25T08:30:15.173Z,101188.63
2022-10-25T08:32:45.898Z,101186.47
2022-10-25T08:35:16.939Z,101192.16
2022-10-25T08:37:47.625Z,101189.22
2022-10-25T08:40:23.069Z,101186.25
2022-10-25T08:43:14.551Z,101174.66
2022-10-25T08:46:10.831Z,101183.50
2022-10-25T08:48:49.332Z,101183.38
2022-10-25T08:51:35.960Z,101179.75
2022-10-25T08:54:18.074Z,101178.81
2022-10-25T08:57:03.408Z,101196.69
2022-10-25T08:59:39.437Z,101201.03
2022-10-25T09:02:41.127Z,101198.22
2022-10-25T09:05:43.401Z,101193.13
2022-10-25T09:08:37.930Z,101195.00
2022-10-25T09:11:23.087Z,101196.66
2022-10-25T09:13:55.337Z,101194.00
2022-10-25T09:16:54.454Z,101187.72
2022-10-25T09:19:27.189Z,101185.91
2022-10-25T09:22:04.243Z,101194.56
2022-10-25T09:24:57.672Z,101195.25
2022-10-25T09:27:45.927Z,101203.09
2022-10-25T09:30:16.467Z,101194.94
2022-10-25T09:32:55.935Z,101198.47
2022-10-25T09:35:48.118Z,101203.44
2022-10-25T09:38:44.421Z,101198.78
2022-10-25T09:41:36.082Z,101212.75
2022-10-25T09:44:23.679Z,101202.78
2022-10-25T09:47:00.142Z,101197.28
2022-10-25T09:50:04.030Z,101202.09
2022-10-25T09:52:43.157Z,101186.84
2022-10-25T09:55:34.987Z,101196.97
2022-10-25T09:58:05.617Z,101202.75
2022-10-25T10:00:42.176Z,101208.25
2022-10-25T10:03:14.250Z,101197.09
2022-10-25T10:05:54.362Z,101200.94
2022-10-25T10:08:26.182Z,101209.88
2022-10-25T10:10:58.419Z,101204.06
2022-10-25T10:13:30.604Z,101203.38
2022-10-25T10:16:04.954Z,101210.53
2022-10-25T10:18:37.046Z,101211.84
2022-10-25T10:21:13.469Z,101204.22
2022-10-25T10:23:57.342Z,101205.50
2022-10-25T10:26:35.621Z,101203.38
2022-10-25T10:29:15.369Z,101208.34
2022-10-25T10:31:54.124Z,101201.31
2022-10-25T10:34:26.795Z,101208.09
2022-10-25T10:37:04.766Z,101202.28
2022-10-25T10:39:35.919Z,101197.63
2022-10-25T10:50:53.679Z,101209.81
2022-10-25T10:53:34.642Z,101205.81
2022-10-25T10:56:09.967Z,101208.94
2022-10-25T10:58:44.511Z,101216.06
2022-10-25T11:01:40.950Z,101211.06
2022-10-25T11:04:11.974Z,101220.72
2022-10-25T11:06:42.518Z,101219.03
2022-10-25T11:09:19.101Z,101212.09
2022-10-25T11:12:08.796Z,101221.53
2022-10-25T11:14:40.359Z,101219.72
2022-10-25T11:17:19.234Z,101230.66
2022-10-25T11:20:04.567Z,101224.50
2022-10-25T11:23:12.142Z,101222.00
2022-10-25T11:26:07.557Z,101232.63
2022-10-25T11:29:04.375Z,101231.28
2022-10-25T11:31:44.488Z,101231.59
2022-10-25T11:34:14.170Z,101233.72
2022-10-25T11:37:16.567Z,101245.81
2022-10-25T11:40:11.071Z,101245.59
2022-10-25T11:43:07.334Z,101247.72
2022-10-25T11:45:51.420Z,101258.66
2022-10-25T11:48:28.147Z,101253.66
2022-10-25T11:51:27.323Z,101258.41
2022-10-25T11:54:13.150Z,101254.38
2022-10-25T11:56:55.616Z,101251.91
2022-10-25T12:00:03.434Z,101251.19
2022-10-25T12:02:41.056Z,101261.13
2022-10-25T12:05:49.064Z,101255.31
2022-10-25T12:08:28.558Z,101251.47
2022-10-25T12:11:21.563Z,101245.78
2022-10-25T12:14:06.614Z,101246.06
2022-10-25T12:16:39.776Z,101251.72
2022-10-25T12:19:20.767Z,101247.69
2022-10-25T12:22:09.877Z,101261.22
2022-10-25T12:24:43.274Z,101256.41
2022-10-25T12:27:15.961Z,101251.53
2022-10-25T12:29:54.215Z,101260.50
2022-10-25T12:32:56.472Z,101250.03
2022-10-25T12:35:34.618Z,101248.66
2022-10-25T12:38:14.850Z,101248.44
2022-10-25T12:40:49.282Z,101258.19
2022-10-25T12:43:24.149Z,101260.31
2022-10-25T12:46:04.883Z,101264.25
2022-10-25T12:49:09.831Z,101257.28
2022-10-25T12:52:23.931Z,101264.56
2022-10-25T12:55:15.347Z,101257.91
2022-10-25T12:58:14.845Z,101242.97
2022-10-25T13:01:25.036Z,101249.25
2022-10-25T13:04:13.387Z,101246.91
2022-10-25T13:06:49.580Z,101244.56
2022-10-25T13:09:26.952Z,101241.38
2022-10-25T13:12:20.458Z,101238.88
2022-10-25T13:14:56.864Z,101252.25
2022-10-25T13:17:29.437Z,101254.22
2022-10-25T13:20:20.746Z,101243.09
2022-10-25T13:22:51.168Z,101250.34
2022-10-25T13:25:41.299Z,101252.47
2022-10-25T13:28:19.233Z,101254.44
2022-10-25T13:30:49.518Z,101244.66
2022-10-25T13:33:28.792Z,101249.69
2022-10-25T13:36:03.309Z,101255.78
2022-10-25T13:38:40.312Z,101256.63
2022-10-25T13:41:17.593Z,101269.88
2022-10-25T13:44:06.255Z,101267.38
2022-10-25T13:46:43.612Z,101277.53
2022-10-25T13:49:43.712Z,101280.84
2022-10-25T13:52:26.450Z,101284.03
2022-10-25T13:54:59.079Z,101290.88
2022-10-25T13:57:52.284Z,101293.25
2022-10-25T14:00:49.321Z,101300.88
2022-10-25T14:03:23.275Z,101304.50
2022-10-25T14:05:56.983Z,101299.38
2022-10-25T14:09:11.487Z,101291.41
2022-10-25T14:11:52.558Z,101292.38
2022-10-25T14:14:31.794Z,101289.59
2022-10-25T14:17:11.999Z,101289.59
2022-10-25T14:19:44.033Z,101293.91
2022-10-25T14:22:35.550Z,101291.13
2022-10-25T14:25:30.363Z,101290.97
2022-10-25T14:28:18.658Z,101297.09
2022-10-25T14:31:00.011Z,101296.28
2022-10-25T14:33:58.214Z,101296.28
2022-10-25T14:36:40.061Z,101285.69
2022-10-25T14:39:22.091Z,101291.66
2022-10-25T14:42:05.964Z,101295.81
2022-10-25T14:44:56.421Z,101298.31
2022-10-25T14:47:31.903Z,101306.28
2022-10-25T14:50:04.138Z,101303.47
2022-10-25T14:52:34.731Z,101302.31
2022-10-25T14:55:08.815Z,101304.00
2022-10-25T14:57:39.552Z,101298.72
2022-10-25T15:00:19.345Z,101301.38
2022-10-25T15:02:54.862Z,101295.91
2022-10-25T15:05:27.085Z,101288.94
2022-10-25T15:08:02.382Z,101287.97
2022-10-25T15:10:42.905Z,101288.94
2022-10-25T15:13:26.041Z,101291.44
2022-10-25T15:15:59.301Z,101283.63
2022-10-25T15:18:32.319Z,101286.28
2022-10-25T15:21:07.395Z,101283.34
2022-10-25T15:23:38.997Z,101291.97
2022-10-25T15:26:32.783Z,101290.16
2022-10-25T15:29:05.444Z,101288.50
2022-10-25T15:31:37.103Z,101289.78
2022-10-25T15:34:08.355Z,101283.63
2022-10-25T15:36:40.332Z,101280.84
2022-10-25T15:39:29.875Z,101281.13
2022-10-25T15:42:00.375Z,101283.09
2022-10-25T15:44:30.805Z,101288.41
2022-10-25T15:47:01.414Z,101286.44
2022-10-25T15:49:32.488Z,101293.41
2022-10-25T15:52:02.918Z,101301.50
2022-10-25T15:54:35.850Z,101306.94
2022-10-25T15:57:06.706Z,101309.06
2022-10-25T15:59:37.088Z,101311.84
2022-10-25T16:02:23.387Z,101302.25
2022-10-25T16:04:54.013Z,101295.28
2022-10-25T16:07:25.105Z,101298.06
2022-10-25T16:09:55.823Z,101296.56
2022-10-25T16:12:33.946Z,101307.16
2022-10-25T16:15:04.916Z,101306.47
2022-10-25T16:17:36.231Z,101312.47
2022-10-25T16:20:17.368Z,101300.19
2022-10-25T16:22:50.560Z,101306.47
2022-10-25T16:25:21.273Z,101296.19
2022-10-25T16:27:52.996Z,101290.34
2022-10-25T16:30:32.176Z,101293.28
2022-10-25T16:33:03.379Z,101301.38
2022-10-25T16:35:33.740Z,101300.53
2022-10-25T16:38:05.811Z,101288.25
2022-10-25T16:40:37.733Z,101290.91
2022-10-25T16:43:08.263Z,101286.47
2022-10-25T16:45:39.681Z,101283.81
2022-10-25T16:48:10.112Z,101286.47
2022-10-25T16:50:40.750Z,101288.25
2022-10-25T16:53:13.309Z,101281.31
2022-10-25T16:55:44.264Z,101284.78
2022-10-25T16:58:14.646Z,101270.88
2022-10-25T17:00:44.838Z,101274.47
2022-10-25T17:03:16.556Z,101265.72
2022-10-25T17:05:48.718Z,101271.84
2022-10-25T17:08:19.038Z,101279.09
2022-10-25T17:10:49.498Z,101286.38
2022-10-25T17:13:20.962Z,101275.22
2022-10-25T17:15:53.214Z,101270.06
2022-10-25T17:18:23.664Z,101272.72
2022-10-25T17:20:53.929Z,101270.38
2022-10-25T17:23:24.223Z,101282.63
2022-10-25T17:26:01.472Z,101282.91
2022-10-25T17:28:33.163Z,101279.59
2022-10-25T17:31:09.827Z,101284.19
2022-10-25T17:33:40.229Z,101280.88
2022-10-25T17:36:12.985Z,101288.97
2022-10-25T17:38:44.028Z,101287.41
2022-10-25T17:41:15.867Z,101290.34
2022-10-25T17:43:46.243Z,101287.88
2022-10-25T17:46:21.998Z,101283.69
2022-10-25T17:48:56.977Z,101282.19
2022-10-25T17:51:27.428Z,101288.44
2022-10-25T17:53:58.426Z,101281.88
2022-10-25T17:59:07.115Z,101298.19
2022-10-25T18:01:39.047Z,101301.09
2022-10-25T18:04:09.767Z,101299.31
2022-10-25T18:06:39.975Z,101297.50
2022-10-25T18:09:11.650Z,101300.97
2022-10-25T18:11:41.987Z,101316.03
2022-10-25T18:14:12.629Z,101313.38
2022-10-25T18:16:42.860Z,101320.34
2022-10-25T18:19:15.773Z,101313.25
2022-10-25T18:21:47.968Z,101312.28
2022-10-25T18:24:18.758Z,101313.25
2022-10-25T18:26:48.910Z,101305.97
2022-10-25T18:29:19.122Z,101310.44
2022-10-25T18:31:49.320Z,101297.22
2022-10-25T18:34:20.257Z,101300.69
2022-10-25T18:36:50.354Z,101299.03
2022-10-25T18:39:20.616Z,101301.81
2022-10-25T18:41:51.608Z,101298.19
2022-10-25T18:44:21.757Z,101299.72
2022-10-25T18:46:51.860Z,101292.34
2022-10-25T18:49:22.120Z,101302.22
2022-10-25T18:51:52.209Z,101290.66
2022-10-25T18:54:22.329Z,101287.19
2022-10-25T18:56:52.481Z,101288.00
2022-10-25T18:59:22.801Z,101279.50
2022-10-25T19:01:53.303Z,101275.03
2022-10-25T19:04:24.297Z,101281.63
2022-10-25T19:06:54.348Z,101293.03
2022-10-25T19:09:24.732Z,101292.88
2022-10-25T19:11:54.813Z,101295.41
2022-10-25T19:14:24.848Z,101290.09
2022-10-25T19:16:54.809Z,101291.94
2022-10-25T19:19:25.620Z,101286.78
2022-10-25T19:21:56.786Z,101288.72
2022-10-25T19:24:27.340Z,101290.97
2022-10-25T19:26:57.564Z,101300.47
2022-10-25T19:29:27.747Z,101295.03
2022-10-25T19:31:59.338Z,101295.16
2022-10-25T19:34:29.427Z,101291.84
2022-10-25T19:37:03.161Z,101297.41
2022-10-25T19:39:33.941Z,101292.41
2022-10-25T19:42:04.263Z,101297.97
2022-10-25T19:44:36.060Z,101293.94
2022-10-25T19:47:06.432Z,101295.75
2022-10-25T19:49:36.606Z,101285.47
2022-10-25T19:52:06.945Z,101283.34
2022-10-25T19:54:37.086Z,101283.53
2022-10-25T19:57:07.957Z,101288.28
2022-10-25T19:59:38.043Z,101284.78
2022-10-25T20:02:08.675Z,101280.47
2022-10-25T20:04:39.043Z,101285.75
2022-10-25T20:07:09.340Z,101297.16
2022-10-25T20:09:39.473Z,101298.00
2022-10-25T20:12:11.151Z,101300.78
2022-10-25T20:14:42.131Z,101300.63
2022-10-25T20:17:13.954Z,101298.13
2022-10-25T20:19:44.458Z,101303.28
2022-10-25T20:22:15.600Z,101302.47
2022-10-25T20:24:46.195Z,101294.78
2022-10-25T20:27:16.629Z,101295.66
2022-10-25T20:29:47.739Z,101296.34
2022-10-25T20:32:18.135Z,101285.22
2022-10-25T20:34:48.692Z,101295.94
2022-10-25T20:37:18.865Z,101292.59
2022-10-25T20:39:49.906Z,101295.50
2022-10-25T20:42:20.679Z,101289.53
2022-10-25T20:44:51.031Z,101292.44
2022-10-25T20:47:22.695Z,101298.00
2022-10-25T20:49:52.945Z,101298.00
2022-10-25T20:52:24.494Z,101298.13
2022-10-25T20:57:31.967Z,101299.41
2022-10-25T21:00:02.262Z,101300.66
2022-10-25T21:02:32.665Z,101299.13
2022-10-25T21:05:02.822Z,101298.44
2022-10-25T21:07:34.159Z,101295.22
2022-10-25T21:10:04.706Z,101305.94
2022-10-25T21:12:35.055Z,101308.84
2022-10-25T21:15:09.435Z,101307.19
2022-10-25T21:17:42.594Z,101305.50
2022-10-25T21:20:13.093Z,101319.00
2022-10-25T21:22:43.945Z,101317.34
2022-10-25T21:25:16.272Z,101320.53
2022-10-25T21:27:46.903Z,101327.47
2022-10-25T21:30:17.717Z,101332.50
2022-10-25T21:32:47.973Z,101338.91
2022-10-25T21:35:19.160Z,101341.69
2022-10-25T21:37:49.499Z,101339.75
2022-10-25T21:40:19.541Z,101339.75
2022-10-25T21:42:49.747Z,101336.25
2022-10-25T21:45:19.923Z,101335.41
2022-10-25T21:47:50.658Z,101336.25
2022-10-25T21:50:21.596Z,101338.91
2022-10-25T21:52:54.395Z,101343.34
2022-10-25T21:55:25.202Z,101342.50
2022-10-25T21:57:57.744Z,101345.84
2022-10-25T22:00:29.766Z,101358.09
2022-10-25T22:03:00.288Z,101366.03
2022-10-25T22:05:30.797Z,101361.72
2022-10-25T22:08:01.311Z,101362.41
2022-10-25T22:10:31.892Z,101359.75
2022-10-25T22:13:02.034Z,101350.19
2022-10-25T22:15:32.729Z,101354.63
2022-10-25T22:18:02.838Z,101355.31
2022-10-25T22:20:32.936Z,101366.47
2022-10-25T22:23:04.530Z,101359.63
2022-10-25T22:25:35.187Z,101362.25
2022-10-25T22:28:05.147Z,101375.22
2022-10-25T22:30:35.234Z,101375.22
2022-10-25T22:33:05.302Z,101380.38
2022-10-25T22:35:36.667Z,101383.72
2022-10-25T22:38:06.880Z,101396.66
2022-10-25T22:41:09.327Z,101403.47
2022-10-25T22:43:42.520Z,101407.66
2022-10-25T22:46:27.153Z,101409.47
2022-10-25T22:49:01.083Z,101415.59
2022-10-25T22:51:33.125Z,101423.41
2022-10-25T22:54:05.733Z,101427.81
2022-10-25T22:56:45.067Z,101430.47
2022-10-25T22:59:23.692Z,101432.16
2022-10-25T23:01:57.229Z,101425.91
2022-10-25T23:04:27.953Z,101432.84
2022-10-25T23:06:59.362Z,101430.19
2022-10-25T23:09:30.760Z,101430.19
2022-10-25T23:12:00.989Z,101430.19
2022-10-25T23:14:31.483Z,101436.06
2022-10-25T23:17:01.504Z,101421.75
2022-10-25T23:19:31.480Z,101426.72
2022-10-25T23:22:02.874Z,101430.25
2022-10-25T23:24:33.028Z,101444.16
2022-10-25T23:27:04.763Z,101440.38
2022-10-25T23:29:36.046Z,101448.06
2022-10-25T23:32:07.629Z,101450.44
2022-10-25T23:34:41.453Z,101459.06
2022-10-25T23:37:13.011Z,101449.16
2022-10-25T23:39:49.301Z,101460.75
2022-10-25T23:42:19.921Z,101453.38
2022-10-25T23:44:49.898Z,101460.88
2022-10-25T23:47:50.020Z,101475.66
